Terminal Aerodrome Forecast
Issued by NWS

Home | Current Version | Previous Version | Text Only | Print | Product List | Glossary On
Versions: 1 2 3 4 5 6 7 8 9 10 11 12 13 14 15 16 17
128
FTUS44 KEPZ 312323
TAFDMN
TAF
KDMN 312323Z 0100/0124 19010KT P6SM FEW100 BKN250
     FM010300 27005KT P6SM SCT120 SCT250
     FM011200 VRB04KT P6SM FEW100=

USA.gov is the U.S. government's official web portal to all federal, state and local government web resources and services.